Peninsula, Ohio
Current Conditions -  °F | °C
As of 10:36 AM on Thursday 23 Oct 2014 (Local Time) from KAKR Reporting Station
Broken Clouds Broken Clouds  
Wind Chill: 53°   Ceiling: 1200
Heat Index: 53°   Visibility: 10mi
Dew Point: 46°   Wind: 12mph
Humidity: 77%   Direction: 320°NW
Pressure: 30.19"   Gusts: NA
Location:  41.24°N, 81.55°W
Report Text: KAKR 231436Z AUTO 32010KT 10SM BKN012 BKN018 12/08 A3019 RMK AO2 T01170078
Loading
Personal Weather Stations






























Interactive Weather Map
Tropical Storm Tracking
New forecast layout! Learn more

10-Day Weather Forecast

Advertisements
Track Severe Weather on mobile